ePrivacy and GPDR Cookie Consent by Cookie Consent
EmailTwitter


Observations de surface / Québec / CYUL (71627)

Régions: Québec | Canada | États-Unis | Europe | France | UK | Ailleurs
Station
Affichage
Infos & localisation pour CYUL (71627) | Aide pour décoder les METARs

Observations prises le 2022-05-22 à 13H00 UTC à MONTREAL INTL A, QB (CYUL)

Etat du ciel: ciel variable.

Température: 21.0 Celsius

Point de rosée: 17.0 Celsius

Humidité relative: 78%

Indice Humidex 26.

Vents: Sud-ouest à 22 km/h ou 12 noeuds.

Rafale du vent: 33 km/h ou 18 noeuds.

Pression au niveau moyen de la mer: 101.40 kilopascals.

Calage altimétrique: 101.39 kilopascals ou 29.94 pouces de mercure.

Visibilité horizontale: 15.00 milles terrestres ou 24.00 kilomètres.

Observation METAR:

CYUL 221300Z 24012G18KT 15SM FEW015 SCT030 SCT140 BKN250 21/17 A2994 RMK

CF1SC2AC1CI1 SLP140 DENSITY ALT 900FT=